Time;durP1;ratioP1;P1;durP2;ratioP2;P2;SDS_P1;SDS_P2;PMS_P1;PMS_P2;Temp;Humidity;BMP_temperature;BMP_pressure;BME280_temperature;BME280_humidity;BME280_pressure;Samples;Min_cycle;Max_cycle;Signal;HPM_P1;HPM_P2
2024/02/21 00:00:18;;;;;;;29.15;13.00;;;;;;;7.74;100.00;69246.97;5071002;28;20051;-53
2024/02/21 00:02:46;;;;;;;30.48;13.93;;;;;;;7.76;100.00;69246.72;5071411;28;20110;-52
2024/02/21 00:05:14;;;;;;;28.90;12.27;;;;;;;7.72;100.00;69247.25;5070358;28;20057;-50
2024/02/21 00:07:44;;;;;;;29.30;12.93;;;;;;;7.72;100.00;69249.84;5071305;28;20483;-51
2024/02/21 00:10:12;;;;;;;31.00;12.88;;;;;;;7.74;100.00;69249.56;5070936;28;20064;-50
2024/02/21 00:12:40;;;;;;;25.95;13.40;;;;;;;7.71;100.00;69246.09;5069003;28;20049;-48
2024/02/21 00:15:09;;;;;;;26.55;13.30;;;;;;;7.69;100.00;69244.34;5073259;28;20442;-48
2024/02/21 00:17:37;;;;;;;24.42;12.98;;;;;;;7.70;100.00;69245.50;5071203;28;20136;-49
2024/02/21 00:20:06;;;;;;;26.90;12.60;;;;;;;7.72;100.00;69244.66;5070409;28;20040;-51
2024/02/21 00:22:35;;;;;;;28.58;13.00;;;;;;;7.71;100.00;69246.09;5072084;28;20053;-49
2024/02/21 00:25:05;;;;;;;27.35;12.98;;;;;;;7.72;100.00;69247.84;5074586;28;20040;-63
2024/02/21 00:27:33;;;;;;;24.92;12.52;;;;;;;7.72;100.00;69245.22;5074476;28;20467;-50
2024/02/21 00:30:01;;;;;;;25.83;12.90;;;;;;;7.72;100.00;69244.66;5072085;28;20701;-62
2024/02/21 00:32:30;;;;;;;25.27;13.68;;;;;;;7.73;100.00;69245.81;5073396;28;20056;-62
2024/02/21 00:35:02;;;;;;;24.90;13.00;;;;;;;7.74;100.00;69255.38;5073026;28;20044;-52
2024/02/21 00:37:30;;;;;;;28.67;13.25;;;;;;;7.74;100.00;69250.16;5069783;28;20043;-52
2024/02/21 00:39:58;;;;;;;24.27;12.23;;;;;;;7.75;100.00;69246.13;5072258;28;20124;-53
2024/02/21 00:42:28;;;;;;;24.42;12.65;;;;;;;7.78;100.00;69249.63;5073938;28;20051;-50
2024/02/21 00:44:56;;;;;;;26.48;12.25;;;;;;;7.79;100.00;69255.41;5073833;28;20044;-54
2024/02/21 00:47:24;;;;;;;23.65;13.68;;;;;;;7.75;100.00;69243.53;5073583;28;20051;-53
2024/02/21 00:49:52;;;;;;;31.50;13.23;;;;;;;7.76;100.00;69255.09;5073391;28;20049;-52
2024/02/21 00:52:21;;;;;;;28.75;13.25;;;;;;;7.76;100.00;69252.50;5071373;28;20045;-52
2024/02/21 00:54:49;;;;;;;27.10;12.68;;;;;;;7.81;100.00;69257.72;5069485;28;20044;-51
2024/02/21 00:57:21;;;;;;;;;;;;;;;7.79;100.00;69255.41;5069870;28;20045;-51
2024/02/21 00:59:51;;;;;;;23.10;12.50;;;;;;;7.79;100.00;69255.41;5070385;28;19955;-52
2024/02/21 01:02:19;;;;;;;21.35;11.75;;;;;;;7.79;100.00;69252.81;5069487;28;20473;-52
2024/02/21 01:04:47;;;;;;;22.55;12.20;;;;;;;7.81;100.00;69252.53;5071980;28;20095;-51
2024/02/21 01:07:15;;;;;;;26.85;12.75;;;;;;;7.77;100.00;69250.47;5070705;28;20052;-50
2024/02/21 01:09:44;;;;;;;26.52;12.35;;;;;;;7.76;100.00;69255.09;5069651;28;20040;-50
2024/02/21 01:12:12;;;;;;;23.33;12.13;;;;;;;7.78;100.00;69251.63;5073442;28;20032;-49
2024/02/21 01:14:40;;;;;;;23.92;11.70;;;;;;;7.78;100.00;69252.22;5071950;28;20361;-50
2024/02/21 01:17:10;;;;;;;22.50;11.90;;;;;;;7.82;100.00;69258.88;5068711;28;20045;-51
2024/02/21 01:19:38;;;;;;;24.35;12.38;;;;;;;7.78;100.00;69254.22;5072355;28;20127;-50
2024/02/21 01:22:06;;;;;;;26.65;12.10;;;;;;;7.76;100.00;69257.69;5072943;28;20044;-52
2024/02/21 01:24:34;;;;;;;24.80;12.00;;;;;;;7.76;100.00;69257.69;5072937;28;20052;-60
2024/02/21 01:27:03;;;;;;;19.63;11.15;;;;;;;7.82;100.00;69258.31;5071507;28;20041;-62
2024/02/21 01:29:31;;;;;;;24.00;11.13;;;;;;;7.80;100.00;69261.78;5071763;28;20052;-62
2024/02/21 01:31:59;;;;;;;24.98;12.10;;;;;;;7.77;100.00;69255.66;5072812;28;20047;-61
2024/02/21 01:34:28;;;;;;;21.67;12.45;;;;;;;7.76;100.00;69249.31;5073222;28;20123;-62
2024/02/21 01:37:04;;;;;;;22.67;10.75;;;;;;;7.81;100.00;69255.13;5073517;28;20119;-62
2024/02/21 01:39:32;;;;;;;;;;;;;;;7.80;100.00;69259.16;5073851;28;20055;-62
2024/02/21 01:42:00;;;;;;;19.70;11.05;;;;;;;7.80;100.00;69259.16;5073148;28;19920;-62
2024/02/21 01:44:28;;;;;;;26.45;11.20;;;;;;;7.80;100.00;69256.56;5071981;28;20068;-62
2024/02/21 01:46:57;;;;;;;24.13;11.43;;;;;;;7.79;100.00;69253.38;5072144;28;20047;-61
2024/02/21 01:49:25;;;;;;;23.35;11.40;;;;;;;7.81;100.00;69257.72;5070122;28;20053;-62
2024/02/21 01:51:56;;;;;;;27.42;11.07;;;;;;;7.81;100.00;69257.72;5073650;28;20071;-62
2024/02/21 01:54:28;;;;;;;21.60;11.75;;;;;;;7.80;100.00;69253.97;5073175;28;20127;-61
2024/02/21 01:56:57;;;;;;;26.60;12.40;;;;;;;7.81;100.00;69257.72;5073247;28;20048;-62
2024/02/21 01:59:25;;;;;;;20.35;10.98;;;;;;;7.84;100.00;69261.22;5072171;28;20498;-62
2024/02/21 02:01:56;;;;;;;23.58;11.07;;;;;;;7.80;100.00;69253.97;5071579;28;20128;-62
2024/02/21 02:04:26;;;;;;;27.45;11.52;;;;;;;7.78;100.00;69254.81;5071719;28;20053;-61
2024/02/21 02:06:57;;;;;;;20.40;11.93;;;;;;;7.84;100.00;69260.63;5071255;28;20048;-63
2024/02/21 02:09:25;;;;;;;26.55;11.40;;;;;;;7.80;100.00;69256.56;5072259;28;20102;-62
2024/02/21 02:11:53;;;;;;;19.95;11.68;;;;;;;7.77;100.00;69250.47;5071642;28;20051;-62
2024/02/21 02:14:22;;;;;;;23.35;11.10;;;;;;;7.74;100.00;69249.56;5071295;28;20113;-62
2024/02/21 02:16:50;;;;;;;28.45;11.82;;;;;;;7.76;100.00;69254.50;5071704;28;20468;-62
2024/02/21 02:19:18;;;;;;;18.17;10.70;;;;;;;7.76;100.00;69255.09;5074706;28;20138;-63
2024/02/21 02:21:53;;;;;;;19.58;10.90;;;;;;;7.74;100.00;69249.56;5076467;28;20125;-62
2024/02/21 02:24:24;;;;;;;23.58;10.80;;;;;;;7.75;100.00;69248.16;5075433;28;20113;-62
2024/02/21 02:26:53;;;;;;;21.63;11.43;;;;;;;7.76;100.00;69251.91;5075350;28;20048;-63
2024/02/21 02:29:21;;;;;;;23.38;10.57;;;;;;;7.73;100.00;69251.59;5075654;28;20040;-63
2024/02/21 02:31:50;;;;;;;23.88;12.32;;;;;;;7.70;100.00;69242.91;5076053;28;20482;-61
2024/02/21 02:34:19;;;;;;;26.85;12.73;;;;;;;7.71;100.00;69246.66;5074848;28;20049;-61
2024/02/21 02:36:49;;;;;;;23.50;11.80;;;;;;;7.71;100.00;69246.09;5075373;28;20388;-61
2024/02/21 02:39:17;;;;;;;20.85;11.93;;;;;;;7.69;100.00;69243.75;5075246;28;20114;-61
2024/02/21 02:41:46;;;;;;;20.70;11.50;;;;;;;7.71;100.00;69244.06;5074943;28;20064;-62
2024/02/21 02:44:18;;;;;;;27.85;12.15;;;;;;;7.69;100.00;69243.75;5074994;28;20106;-62
2024/02/21 02:46:46;;;;;;;25.42;12.65;;;;;;;7.71;100.00;69246.66;5075418;28;20051;-61
2024/02/21 02:49:14;;;;;;;21.95;12.68;;;;;;;7.73;100.00;69251.00;5074937;28;20053;-62
2024/02/21 02:51:43;;;;;;;23.77;12.27;;;;;;;7.70;100.00;69248.09;5075292;28;20051;-63
2024/02/21 02:54:14;;;;;;;24.20;11.90;;;;;;;7.70;100.00;69250.13;5075323;28;20496;-61
2024/02/21 02:56:42;;;;;;;24.50;11.70;;;;;;;7.68;100.00;69243.19;5075475;28;20574;-62
2024/02/21 02:59:11;;;;;;;24.13;11.18;;;;;;;7.70;100.00;69242.31;5076261;28;20487;-62
2024/02/21 03:01:39;;;;;;;21.98;11.73;;;;;;;7.68;100.00;69240.56;5076168;28;20123;-63
2024/02/21 03:04:07;;;;;;;24.48;11.20;;;;;;;7.69;100.00;69246.34;5074733;28;20380;-62
2024/02/21 03:06:38;;;;;;;22.50;10.88;;;;;;;7.68;100.00;69242.59;5074814;28;20051;-62
2024/02/21 03:09:08;;;;;;;21.45;10.50;;;;;;;7.68;100.00;69243.19;5074768;28;20106;-62
2024/02/21 03:11:40;;;;;;;22.17;11.90;;;;;;;7.68;100.00;69242.59;5074525;28;20048;-62
2024/02/21 03:14:09;;;;;;;19.45;10.63;;;;;;;7.65;100.00;69242.28;5074299;28;20450;-62
2024/02/21 03:16:38;;;;;;;24.02;11.02;;;;;;;7.67;100.00;69236.22;5074636;28;20056;-61
2024/02/21 03:19:07;;;;;;;23.65;11.82;;;;;;;7.73;100.00;69251.00;5074311;28;20052;-62
2024/02/21 03:21:35;;;;;;;20.17;9.68;;;;;;;7.68;100.00;69242.59;5074634;28;20127;-62
2024/02/21 03:24:04;;;;;;;23.75;10.35;;;;;;;7.67;100.00;69241.44;5075855;28;20047;-62
2024/02/21 03:26:32;;;;;;;22.73;10.35;;;;;;;7.69;100.00;69238.56;5074243;28;20101;-62
2024/02/21 03:29:00;;;;;;;17.10;10.35;;;;;;;7.67;100.00;69236.22;5072916;28;20044;-50
2024/02/21 03:31:28;;;;;;;22.02;10.07;;;;;;;7.71;100.00;69246.09;5071351;28;20051;-50
2024/02/21 03:34:00;;;;;;;20.70;10.60;;;;;;;7.69;100.00;69243.75;5071390;28;20491;-52
2024/02/21 03:36:29;;;;;;;20.58;10.57;;;;;;;7.70;100.00;69250.72;5071754;28;20163;-51
2024/02/21 03:38:57;;;;;;;24.35;9.82;;;;;;;7.72;100.00;69245.22;5071100;28;20048;-52
2024/02/21 03:41:25;;;;;;;20.50;9.60;;;;;;;7.69;100.00;69243.75;5073116;28;20170;-51
2024/02/21 03:43:53;;;;;;;21.45;9.55;;;;;;;7.67;100.00;69241.44;5073884;28;20044;-51
2024/02/21 03:46:25;;;;;;;18.60;9.23;;;;;;;7.69;100.00;69244.34;5075131;28;20048;-52
2024/02/21 03:48:54;;;;;;;18.40;9.00;;;;;;;7.72;100.00;69247.25;5073786;28;20044;-52
2024/02/21 03:51:23;;;;;;;16.65;8.50;;;;;;;7.70;100.00;69247.50;5069653;28;20045;-50
2024/02/21 03:53:52;;;;;;;20.27;9.13;;;;;;;7.70;100.00;69250.72;5074052;28;20499;-51
2024/02/21 03:56:20;;;;;;;18.42;8.18;;;;;;;7.67;100.00;69239.41;5074696;28;20040;-52
2024/02/21 03:58:51;;;;;;;16.05;8.02;;;;;;;7.66;100.00;69240.84;5071149;28;20411;-50
2024/02/21 04:01:19;;;;;;;16.77;8.70;;;;;;;7.66;100.00;69240.25;5071272;28;20049;-51
2024/02/21 04:03:48;;;;;;;19.25;8.18;;;;;;;7.65;100.00;69237.09;5071882;28;20044;-52
2024/02/21 04:06:17;;;;;;;16.58;8.25;;;;;;;7.65;100.00;69239.09;5072783;28;20520;-51
2024/02/21 04:08:46;;;;;;;19.10;8.05;;;;;;;7.67;100.00;69242.00;5073714;28;20439;-52
2024/02/21 04:11:15;;;;;;;16.65;8.85;;;;;;;7.67;100.00;69241.44;5074691;28;20044;-49
2024/02/21 04:13:43;;;;;;;17.27;7.40;;;;;;;7.66;100.00;69240.25;5072935;28;20032;-52
2024/02/21 04:16:11;;;;;;;17.25;8.13;;;;;;;7.67;100.00;69244.59;5070791;28;20092;-51
2024/02/21 04:18:41;;;;;;;18.65;7.85;;;;;;;7.67;100.00;69242.00;5071012;28;20048;-52
2024/02/21 04:21:09;;;;;;;22.00;7.45;;;;;;;7.66;100.00;69240.84;5070411;28;20117;-51
2024/02/21 04:23:38;;;;;;;18.60;7.47;;;;;;;7.68;100.00;69240.00;5074069;28;20408;-49
2024/02/21 04:26:08;;;;;;;15.25;7.38;;;;;;;7.66;100.00;69240.84;5072913;28;20618;-50
2024/02/21 04:28:36;;;;;;;13.95;6.93;;;;;;;7.69;100.00;69246.94;5070530;28;20055;-52
2024/02/21 04:31:04;;;;;;;16.45;7.65;;;;;;;7.69;100.00;69241.16;5070664;28;20046;-48
2024/02/21 04:33:33;;;;;;;15.52;7.50;;;;;;;7.71;100.00;69248.69;5070999;28;20109;-48
2024/02/21 04:36:02;;;;;;;15.63;7.05;;;;;;;7.70;100.00;69244.91;5070528;28;20384;-49
2024/02/21 04:38:30;;;;;;;15.18;7.22;;;;;;;7.70;100.00;69247.50;5071350;28;20044;-48
2024/02/21 04:40:58;;;;;;;17.92;7.82;;;;;;;7.69;100.00;69246.34;5071534;28;20053;-50
2024/02/21 04:43:28;;;;;;;19.35;6.82;;;;;;;7.71;100.00;69246.66;5070260;28;20392;-48
2024/02/21 04:45:56;;;;;;;18.25;7.30;;;;;;;7.70;100.00;69244.91;5072523;28;20050;-47
2024/02/21 04:48:24;;;;;;;14.68;6.97;;;;;;;7.67;100.00;69241.44;5071654;28;20135;-60
2024/02/21 04:50:52;;;;;;;16.95;7.38;;;;;;;7.72;100.00;69247.25;5073263;28;20491;-62
2024/02/21 04:53:21;;;;;;;14.13;7.65;;;;;;;7.67;100.00;69241.44;5074045;28;20048;-60
2024/02/21 04:55:49;;;;;;;17.85;6.60;;;;;;;7.66;100.00;69240.25;5073969;28;20053;-60
2024/02/21 04:58:17;;;;;;;16.30;7.25;;;;;;;7.64;100.00;69232.75;5074026;28;20068;-60
2024/02/21 05:00:47;;;;;;;15.80;7.05;;;;;;;7.65;100.00;69233.91;5072699;28;20124;-60
2024/02/21 05:03:15;;;;;;;17.88;7.32;;;;;;;7.69;100.00;69241.75;5072220;28;20123;-60
2024/02/21 05:05:43;;;;;;;15.55;7.43;;;;;;;7.66;100.00;69237.66;5072400;28;20068;-60
2024/02/21 05:08:12;;;;;;;16.63;6.95;;;;;;;7.66;100.00;69240.84;5072596;28;20050;-48
2024/02/21 05:10:40;;;;;;;14.18;7.35;;;;;;;7.66;100.00;69237.66;5073387;28;20499;-48
2024/02/21 05:13:08;;;;;;;17.15;6.97;;;;;;;7.68;100.00;69242.59;5072144;28;20424;-49
2024/02/21 05:15:37;;;;;;;18.27;7.97;;;;;;;7.66;100.00;69240.25;5073553;28;20123;-60
2024/02/21 05:18:06;;;;;;;15.40;7.72;;;;;;;7.61;100.00;69235.03;5073479;28;20052;-60
2024/02/21 05:20:34;;;;;;;17.42;8.68;;;;;;;7.64;100.00;69237.94;5071967;28;20592;-60
2024/02/21 05:23:03;;;;;;;16.38;7.78;;;;;;;7.61;100.00;69240.78;5072101;28;20042;-60
2024/02/21 05:25:31;;;;;;;17.83;8.48;;;;;;;7.63;100.00;69236.78;5073268;28;20496;-61
2024/02/21 05:28:01;;;;;;;21.60;9.32;;;;;;;7.61;100.00;69233.00;5072355;28;20044;-60
2024/02/21 05:30:30;;;;;;;16.67;8.45;;;;;;;7.64;100.00;69238.50;5069801;28;20057;-49
2024/02/21 05:32:58;;;;;;;15.70;8.43;;;;;;;7.64;100.00;69240.53;5070069;28;20882;-50
2024/02/21 05:35:29;;;;;;;16.58;8.90;;;;;;;7.61;100.00;69230.41;5068003;28;20059;-49
2024/02/21 05:37:59;;;;;;;15.70;8.60;;;;;;;7.61;100.00;69235.59;5069788;28;20557;-52
2024/02/21 05:40:27;;;;;;;18.80;8.57;;;;;;;7.60;100.00;69234.44;5069178;28;20388;-49
2024/02/21 05:42:56;;;;;;;20.90;9.02;;;;;;;7.65;100.00;69237.09;5068674;28;20131;-49
2024/02/21 05:45:24;;;;;;;19.45;9.00;;;;;;;7.61;100.00;69233.00;5070505;28;20110;-60
2024/02/21 05:47:52;;;;;;;15.82;8.23;;;;;;;7.65;100.00;69237.09;5071569;28;20086;-48
2024/02/21 05:50:23;;;;;;;20.75;8.55;;;;;;;7.61;100.00;69235.59;5068691;28;20051;-52
2024/02/21 05:52:54;;;;;;;17.38;9.00;;;;;;;7.60;100.00;69229.25;5067732;28;20044;-50
2024/02/21 05:55:22;;;;;;;18.83;8.32;;;;;;;7.61;100.00;69238.19;5068613;28;20048;-53
2024/02/21 05:57:51;;;;;;;17.83;9.50;;;;;;;7.58;100.00;69234.13;5070818;28;20037;-60
2024/02/21 06:00:19;;;;;;;15.57;8.73;;;;;;;7.60;100.00;69233.84;5071650;28;20076;-62
2024/02/21 06:02:47;;;;;;;21.05;9.93;;;;;;;7.59;100.00;69233.28;5071957;28;20051;-61
2024/02/21 06:05:15;;;;;;;16.48;9.38;;;;;;;7.64;100.00;69238.50;5072397;28;20472;-61
2024/02/21 06:07:43;;;;;;;16.33;9.10;;;;;;;7.64;100.00;69235.34;5072810;28;20051;-60
2024/02/21 06:10:13;;;;;;;16.23;9.52;;;;;;;7.66;100.00;69237.66;5069647;28;20778;-51
2024/02/21 06:12:41;;;;;;;15.48;8.35;;;;;;;7.63;100.00;69231.56;5068011;28;20078;-50
2024/02/21 06:15:10;;;;;;;17.42;9.02;;;;;;;7.61;100.00;69238.19;5069196;28;20106;-48
2024/02/21 06:17:38;;;;;;;19.65;8.07;;;;;;;7.66;100.00;69240.84;5071442;28;20051;-51
2024/02/21 06:20:07;;;;;;;16.20;8.43;;;;;;;7.64;100.00;69235.91;5068466;28;20114;-51
2024/02/21 06:22:36;;;;;;;16.48;8.35;;;;;;;7.64;100.00;69238.50;5068942;28;20124;-51
2024/02/21 06:25:04;;;;;;;18.10;8.88;;;;;;;7.66;100.00;69237.66;5068061;28;20051;-52
2024/02/21 06:27:34;;;;;;;18.67;7.93;;;;;;;7.65;100.00;69239.69;5069333;28;20068;-53
2024/02/21 06:30:02;;;;;;;16.10;7.97;;;;;;;7.66;100.00;69240.25;5072612;28;20043;-51
2024/02/21 06:32:31;;;;;;;18.30;8.90;;;;;;;7.64;100.00;69238.50;5072313;28;20044;-51
2024/02/21 06:35:01;;;;;;;17.08;8.02;;;;;;;7.64;100.00;69238.50;5071996;28;20139;-50
2024/02/21 06:37:30;;;;;;;17.13;7.47;;;;;;;7.64;100.00;69238.50;5068916;28;20136;-51
2024/02/21 06:39:58;;;;;;;14.13;6.78;;;;;;;7.63;100.00;69236.78;5068822;28;20434;-52
2024/02/21 06:42:26;;;;;;;17.05;6.97;;;;;;;7.61;100.00;69235.03;5067746;28;20127;-52
2024/02/21 06:44:57;;;;;;;16.90;6.88;;;;;;;7.62;100.00;69236.19;5068391;28;20056;-51
2024/02/21 06:47:25;;;;;;;17.60;7.22;;;;;;;7.59;100.00;69233.28;5070780;28;20079;-50
2024/02/21 06:49:53;;;;;;;13.90;7.20;;;;;;;7.61;100.00;69233.00;5068760;28;20102;-49
2024/02/21 06:52:21;;;;;;;18.25;7.55;;;;;;;7.59;100.00;69235.88;5068259;28;20051;-48
2024/02/21 06:54:49;;;;;;;17.38;7.55;;;;;;;7.59;100.00;69235.28;5067554;28;20094;-50
2024/02/21 06:57:17;;;;;;;18.08;7.93;;;;;;;7.61;100.00;69235.59;5070618;28;20551;-48
2024/02/21 06:59:46;;;;;;;19.10;7.90;;;;;;;7.64;100.00;69237.94;5072017;28;20036;-50
2024/02/21 07:02:15;;;;;;;19.52;9.02;;;;;;;7.64;100.00;69238.50;5070980;28;20048;-49
2024/02/21 07:04:43;;;;;;;14.23;7.18;;;;;;;7.64;100.00;69238.50;5069582;28;20087;-49
2024/02/21 07:07:12;;;;;;;20.42;7.97;;;;;;;7.65;100.00;69244.88;5072099;28;20510;-51
2024/02/21 07:09:41;;;;;;;20.13;7.78;;;;;;;7.67;100.00;69236.22;5074631;28;20068;-50
2024/02/21 07:12:10;;;;;;;19.10;8.15;;;;;;;7.65;100.00;69241.69;5075556;28;20052;-51
2024/02/21 07:14:40;;;;;;;20.48;7.80;;;;;;;7.64;100.00;69240.53;5072242;28;20041;-47
2024/02/21 07:17:09;;;;;;;18.98;7.95;;;;;;;7.63;100.00;69237.34;5070983;28;20407;-51
2024/02/21 07:19:38;;;;;;;18.02;7.65;;;;;;;7.62;100.00;69236.19;5071792;28;20044;-49
2024/02/21 07:22:06;;;;;;;15.80;7.50;;;;;;;7.61;100.00;69238.19;5072088;28;20036;-51
2024/02/21 07:24:35;;;;;;;19.10;7.38;;;;;;;7.64;100.00;69241.13;5071211;28;20504;-50
2024/02/21 07:27:04;;;;;;;17.25;7.75;;;;;;;7.67;100.00;69241.44;5070528;28;20408;-52
2024/02/21 07:29:32;;;;;;;17.30;7.80;;;;;;;7.64;100.00;69238.50;5071667;28;20049;-52
2024/02/21 07:32:01;;;;;;;15.38;8.00;;;;;;;7.64;100.00;69237.94;5072388;28;20063;-51
2024/02/21 07:34:29;;;;;;;19.75;8.30;;;;;;;7.60;100.00;69233.84;5071241;28;20511;-50
2024/02/21 07:36:59;;;;;;;13.98;7.57;;;;;;;7.62;100.00;69233.59;5071695;28;20051;-51
2024/02/21 07:39:27;;;;;;;17.48;7.57;;;;;;;7.61;100.00;69238.19;5071300;28;20059;-50
2024/02/21 07:41:58;;;;;;;15.82;7.93;;;;;;;7.64;100.00;69243.13;5071280;28;20045;-50
2024/02/21 07:44:26;;;;;;;15.63;7.50;;;;;;;7.68;100.00;69245.78;5071120;28;20044;-51
2024/02/21 07:46:54;;;;;;;17.92;7.63;;;;;;;7.68;100.00;69242.59;5072414;28;20135;-49
2024/02/21 07:49:23;;;;;;;21.40;8.98;;;;;;;7.66;100.00;69237.66;5071079;28;20498;-48
2024/02/21 07:51:52;;;;;;;20.95;8.10;;;;;;;7.67;100.00;69241.44;5074072;28;20506;-47
2024/02/21 07:54:21;;;;;;;19.92;7.80;;;;;;;7.68;100.00;69240.00;5070797;28;20446;-48
2024/02/21 07:56:49;;;;;;;17.83;8.52;;;;;;;7.68;100.00;69245.19;5068935;28;20102;-48
2024/02/21 07:59:18;;;;;;;14.40;7.65;;;;;;;7.69;100.00;69243.75;5073014;28;20041;-48
2024/02/21 08:01:46;;;;;;;14.95;7.60;;;;;;;7.72;100.00;69249.84;5074740;28;20057;-49
2024/02/21 08:04:14;;;;;;;17.38;8.18;;;;;;;7.71;100.00;69246.09;5074277;28;20530;-49
2024/02/21 08:06:44;;;;;;;15.90;8.57;;;;;;;7.72;100.00;69249.84;5074603;28;20052;-52
2024/02/21 08:09:13;;;;;;;17.15;7.47;;;;;;;7.74;100.00;69250.16;5074598;28;20503;-48
2024/02/21 08:11:42;;;;;;;16.38;8.10;;;;;;;7.75;100.00;69255.94;5072289;28;20487;-48
2024/02/21 08:14:11;;;;;;;19.45;8.23;;;;;;;7.77;100.00;69250.47;5070546;28;20044;-50
2024/02/21 08:16:39;;;;;;;17.77;8.25;;;;;;;7.78;100.00;69257.44;5072939;28;20049;-49
2024/02/21 08:19:07;;;;;;;19.17;8.00;;;;;;;7.82;100.00;69255.72;5069091;28;20048;-50
2024/02/21 08:21:35;;;;;;;17.67;8.20;;;;;;;7.84;100.00;69263.81;5070668;28;20094;-52
2024/02/21 08:24:04;;;;;;;18.73;7.95;;;;;;;7.86;100.00;69265.56;5070352;28;20119;-51
2024/02/21 08:26:32;;;;;;;16.92;7.82;;;;;;;7.93;100.00;69271.72;5069046;28;20048;-50
2024/02/21 08:29:02;;;;;;;16.10;7.57;;;;;;;7.97;100.00;69272.59;5071189;28;20048;-50
2024/02/21 08:31:31;;;;;;;18.15;8.13;;;;;;;8.00;100.00;69276.66;5073167;28;20403;-48
2024/02/21 08:34:03;;;;;;;19.27;8.95;;;;;;;8.05;100.00;69287.69;5072475;28;20055;-48
2024/02/21 08:36:32;;;;;;;18.80;8.77;;;;;;;8.08;100.00;69288.00;5069387;28;20048;-48
2024/02/21 08:39:01;;;;;;;19.92;9.18;;;;;;;8.07;100.00;69287.44;5070996;28;20489;-48
2024/02/21 08:41:31;;;;;;;18.95;8.00;;;;;;;8.11;100.00;69291.50;5069142;28;20381;-49
2024/02/21 08:44:20;;;;;;;17.23;8.13;;;;;;;8.12;100.00;69292.66;5069577;28;20044;-50
2024/02/21 08:46:48;;;;;;;19.33;8.48;;;;;;;8.11;100.00;69291.50;5071780;28;20055;-51
2024/02/21 08:49:16;;;;;;;18.42;9.00;;;;;;;8.15;100.00;69296.16;5073896;28;20139;-49
2024/02/21 08:51:46;;;;;;;22.05;9.55;;;;;;;8.15;100.00;69292.97;5073698;28;20131;-49
2024/02/21 08:54:14;;;;;;;18.08;8.77;;;;;;;8.14;100.00;69295.00;5070777;28;20404;-50
2024/02/21 08:56:43;;;;;;;18.58;9.02;;;;;;;8.21;100.00;69302.59;5069790;28;20515;-48
2024/02/21 08:59:11;;;;;;;18.63;8.93;;;;;;;8.27;100.00;69312.72;5073426;28;20555;-47
2024/02/21 09:01:40;;;;;;;18.67;8.90;;;;;;;8.25;100.00;69307.25;5071566;28;20047;-51
2024/02/21 09:04:09;;;;;;;18.50;8.20;;;;;;;8.29;100.00;69312.47;5069294;28;20056;-50
2024/02/21 09:06:41;;;;;;;17.38;8.90;;;;;;;8.32;100.00;69318.00;5069720;28;20075;-51
2024/02/21 09:09:10;;;;;;;15.25;8.07;;;;;;;8.32;100.00;69317.41;5069806;28;20049;-51
2024/02/21 09:11:39;;;;;;;18.77;8.25;;;;;;;8.35;100.00;69316.28;5068611;28;20378;-48
2024/02/21 09:14:07;;;;;;;20.40;8.40;;;;;;;8.41;100.00;69322.69;5071783;28;20442;-61
2024/02/21 09:16:35;;;;;;;15.57;8.02;;;;;;;8.41;100.00;69322.69;5072083;28;20090;-61
2024/02/21 09:19:05;;;;;;;16.42;7.28;;;;;;;8.37;100.00;69323.81;5073070;28;20071;-52
2024/02/21 09:21:33;;;;;;;13.98;7.78;;;;;;;8.36;100.00;69319.47;5072988;28;20119;-60
2024/02/21 09:24:02;;;;;;;14.30;7.57;;;;;;;8.40;100.00;69326.72;5073425;28;20036;-51
2024/02/21 09:26:30;;;;;;;15.52;7.15;;;;;;;8.44;100.00;69328.78;5071650;28;20056;-52
2024/02/21 09:28:58;;;;;;;13.00;7.05;;;;;;;8.45;100.00;69329.97;5071207;28;20125;-49
2024/02/21 09:31:26;;;;;;;11.63;7.25;;;;;;;8.42;100.00;69329.63;5069512;28;20044;-48
2024/02/21 09:33:55;;;;;;;17.60;7.53;;;;;;;8.46;100.00;69331.72;5071425;28;20052;-50
2024/02/21 09:36:28;;;;;;;15.60;7.65;;;;;;;8.50;100.00;69335.22;5067970;28;20102;-48
2024/02/21 09:38:56;;;;;;;12.98;6.60;;;;;;;8.50;100.00;69335.78;5070660;28;20116;-50
2024/02/21 09:41:27;;;;;;;11.23;7.00;;;;;;;8.52;100.00;69334.94;5072958;28;20055;-50
2024/02/21 09:43:55;;;;;;;13.10;6.60;;;;;;;8.54;100.00;69337.28;5068905;28;20519;-48
2024/02/21 09:46:35;;;;;;;14.70;6.40;;;;;;;8.56;100.00;69345.41;5069904;28;20514;-61
2024/02/21 09:49:15;;;;;;;13.45;6.75;;;;;;;8.60;100.00;69347.47;5072908;28;20044;-61
2024/02/21 09:51:46;;;;;;;16.45;6.72;;;;;;;8.61;100.00;69346.00;5072911;28;20060;-61
2024/02/21 09:54:14;;;;;;;11.32;6.57;;;;;;;8.63;100.00;69350.38;5073039;28;20049;-62
2024/02/21 09:56:46;;;;;;;12.20;6.07;;;;;;;8.65;100.00;69355.28;5072833;28;20434;-61
2024/02/21 09:59:16;;;;;;;14.57;6.63;;;;;;;8.68;100.00;69353.59;5070112;28;20098;-61
2024/02/21 10:01:46;;;;;;;11.75;6.68;;;;;;;8.70;100.00;69361.13;5070648;28;21289;-61
2024/02/21 10:04:15;;;;;;;13.93;6.35;;;;;;;8.76;100.00;69365.50;5069475;28;20060;-61
2024/02/21 10:06:45;;;;;;;10.40;6.57;;;;;;;8.77;100.00;69366.69;5070310;28;20037;-62
2024/02/21 10:09:22;;;;;;;13.27;6.03;;;;;;;8.78;100.00;69367.84;5069681;28;20094;-61
2024/02/21 10:11:51;;;;;;;13.95;6.63;;;;;;;8.82;100.00;69368.72;5069820;28;20037;-62
2024/02/21 10:14:20;;;;;;;11.65;6.35;;;;;;;8.79;100.00;69369.03;5071466;28;20044;-61
2024/02/21 10:16:49;;;;;;;13.90;7.13;;;;;;;8.84;100.00;69378.88;5070244;28;20124;-61
2024/02/21 10:19:18;;;;;;;11.75;6.60;;;;;;;8.86;100.00;69376.00;5068658;28;20091;-50
2024/02/21 10:22:03;;;;;;;9.82;5.95;;;;;;;8.84;100.00;69374.25;5067721;28;20102;-61
2024/02/21 10:24:32;;;;;;;11.65;6.05;;;;;;;8.82;100.00;69369.34;5070922;28;20055;-61
2024/02/21 10:27:03;;;;;;;10.55;5.68;;;;;;;8.76;100.00;69364.94;5069424;28;20068;-61
2024/02/21 10:29:31;;;;;;;11.70;5.85;;;;;;;8.74;100.00;69365.19;5069769;28;20090;-61
2024/02/21 10:32:07;;;;;;;11.10;5.50;;;;;;;8.75;100.00;69366.34;5068718;28;20041;-61
2024/02/21 10:34:37;;;;;;;9.30;5.28;;;;;;;8.80;100.00;69369.59;5071719;28;20056;-61
2024/02/21 10:37:08;;;;;;;9.77;4.88;;;;;;;8.80;100.00;69369.59;5069355;28;20045;-52
2024/02/21 10:39:38;;;;;;;9.07;4.40;;;;;;;8.76;100.00;69365.50;5068362;28;20094;-53
2024/02/21 10:42:07;;;;;;;10.30;4.78;;;;;;;8.69;100.00;69357.34;5072554;28;20032;-61
2024/02/21 10:44:39;;;;;;;10.48;4.55;;;;;;;8.67;100.00;69349.84;5072908;28;20128;-61
2024/02/21 10:47:09;;;;;;;9.15;4.65;;;;;;;8.63;100.00;69353.56;5073073;28;20044;-61
2024/02/21 10:49:40;;;;;;;9.68;4.57;;;;;;;8.67;100.00;69352.44;5071467;28;20052;-62
2024/02/21 10:52:15;;;;;;;9.27;5.10;;;;;;;8.63;100.00;69355.56;5072848;28;20503;-61
2024/02/21 10:54:55;;;;;;;9.75;4.80;;;;;;;8.65;100.00;69349.50;5072863;28;20544;-61
2024/02/21 10:57:24;;;;;;;9.30;4.88;;;;;;;8.61;100.00;69348.59;5072134;28;20068;-61
2024/02/21 10:59:52;;;;;;;8.52;5.18;;;;;;;8.63;100.00;69350.94;5073738;28;20128;-61
2024/02/21 11:02:21;;;;;;;9.25;5.38;;;;;;;8.57;100.00;69343.38;5076157;28;20049;-61
2024/02/21 11:04:52;;;;;;;11.45;5.30;;;;;;;8.62;100.00;69351.81;5075780;28;20048;-61
2024/02/21 11:07:22;;;;;;;10.38;5.78;;;;;;;8.65;100.00;69350.09;5073920;28;20789;-62
2024/02/21 11:09:55;;;;;;;9.95;5.93;;;;;;;8.77;100.00;69366.09;5072486;28;20055;-61
2024/02/21 11:12:25;;;;;;;11.05;6.38;;;;;;;8.72;100.00;69357.66;5072085;28;20059;-62
2024/02/21 11:14:53;;;;;;;13.40;6.28;;;;;;;8.74;100.00;69362.59;5074062;28;20052;-61
2024/02/21 11:17:25;;;;;;;13.85;5.68;;;;;;;8.75;100.00;69363.75;5075613;28;20044;-61
2024/02/21 11:19:54;;;;;;;12.88;6.65;;;;;;;8.72;100.00;69360.84;5075664;28;20044;-61
2024/02/21 11:22:29;;;;;;;11.77;6.10;;;;;;;8.72;100.00;69365.47;5072924;28;20819;-61
2024/02/21 11:25:08;;;;;;;12.98;6.53;;;;;;;8.72;100.00;69362.88;5072068;28;20044;-61
2024/02/21 11:27:36;;;;;;;13.45;7.13;;;;;;;8.71;100.00;69362.28;5071786;28;20051;-62
2024/02/21 11:30:07;;;;;;;14.13;7.18;;;;;;;8.75;100.00;69364.34;5072595;28;20535;-62
2024/02/21 11:32:36;;;;;;;14.75;6.45;;;;;;;8.77;100.00;69366.69;5072095;28;20053;-61